sensor_id;sensor_type;location;lat;lon;timestamp;P1;durP1;ratioP1;P2;durP2;ratioP2
4527;SDS011;62320;51.520;6.818;2023-04-25T00:05:25;10.43;;;2.83;;
4527;SDS011;62320;51.520;6.818;2023-04-25T00:15:27;10.55;;;2.95;;
4527;SDS011;62320;51.520;6.818;2023-04-25T00:25:31;13.40;;;2.83;;
4527;SDS011;62320;51.520;6.818;2023-04-25T00:35:33;9.83;;;2.67;;
4527;SDS011;62320;51.520;6.818;2023-04-25T00:45:35;10.57;;;2.47;;
4527;SDS011;62320;51.520;6.818;2023-04-25T00:55:39;11.05;;;2.92;;
4527;SDS011;62320;51.520;6.818;2023-04-25T01:05:41;11.03;;;3.30;;
4527;SDS011;62320;51.520;6.818;2023-04-25T01:15:43;11.50;;;3.53;;
4527;SDS011;62320;51.520;6.818;2023-04-25T01:25:45;10.15;;;3.38;;
4527;SDS011;62320;51.520;6.818;2023-04-25T01:35:47;11.07;;;3.17;;
4527;SDS011;62320;51.520;6.818;2023-04-25T01:45:49;8.90;;;2.67;;
4527;SDS011;62320;51.520;6.818;2023-04-25T01:55:51;9.27;;;2.50;;
4527;SDS011;62320;51.520;6.818;2023-04-25T02:05:53;8.07;;;2.90;;
4527;SDS011;62320;51.520;6.818;2023-04-25T02:15:54;13.17;;;3.23;;
4527;SDS011;62320;51.520;6.818;2023-04-25T02:25:56;9.98;;;2.90;;
4527;SDS011;62320;51.520;6.818;2023-04-25T02:35:58;9.98;;;3.10;;
4527;SDS011;62320;51.520;6.818;2023-04-25T02:45:59;10.40;;;2.70;;
4527;SDS011;62320;51.520;6.818;2023-04-25T02:56:01;10.70;;;3.70;;
4527;SDS011;62320;51.520;6.818;2023-04-25T03:06:03;12.18;;;3.67;;
4527;SDS011;62320;51.520;6.818;2023-04-25T03:16:04;12.03;;;3.50;;
4527;SDS011;62320;51.520;6.818;2023-04-25T03:26:06;11.00;;;3.40;;
4527;SDS011;62320;51.520;6.818;2023-04-25T03:36:08;15.52;;;3.80;;
4527;SDS011;62320;51.520;6.818;2023-04-25T03:46:09;18.63;;;4.47;;
4527;SDS011;62320;51.520;6.818;2023-04-25T03:56:11;11.67;;;3.63;;
4527;SDS011;62320;51.520;6.818;2023-04-25T04:06:12;10.68;;;3.55;;
4527;SDS011;62320;51.520;6.818;2023-04-25T04:16:14;17.25;;;3.75;;
4527;SDS011;62320;51.520;6.818;2023-04-25T04:26:16;16.43;;;4.23;;
4527;SDS011;62320;51.520;6.818;2023-04-25T04:36:18;11.70;;;4.43;;
4527;SDS011;62320;51.520;6.818;2023-04-25T04:46:24;15.80;;;3.90;;
4527;SDS011;62320;51.520;6.818;2023-04-25T04:56:25;12.33;;;4.40;;
4527;SDS011;62320;51.520;6.818;2023-04-25T05:06:27;16.07;;;4.03;;
4527;SDS011;62320;51.520;6.818;2023-04-25T05:16:30;17.75;;;4.18;;
4527;SDS011;62320;51.520;6.818;2023-04-25T05:26:31;12.77;;;4.43;;
4527;SDS011;62320;51.520;6.818;2023-04-25T05:36:33;11.80;;;3.40;;
4527;SDS011;62320;51.520;6.818;2023-04-25T05:46:35;15.20;;;3.95;;
4527;SDS011;62320;51.520;6.818;2023-04-25T05:56:36;12.75;;;3.45;;
4527;SDS011;62320;51.520;6.818;2023-04-25T06:06:38;15.70;;;3.33;;
4527;SDS011;62320;51.520;6.818;2023-04-25T06:16:39;9.90;;;2.50;;
4527;SDS011;62320;51.520;6.818;2023-04-25T06:26:41;13.52;;;3.17;;
4527;SDS011;62320;51.520;6.818;2023-04-25T06:36:42;12.67;;;3.30;;
4527;SDS011;62320;51.520;6.818;2023-04-25T06:46:45;9.43;;;3.17;;
4527;SDS011;62320;51.520;6.818;2023-04-25T06:56:47;12.32;;;3.67;;
4527;SDS011;62320;51.520;6.818;2023-04-25T07:06:48;9.43;;;2.27;;
4527;SDS011;62320;51.520;6.818;2023-04-25T07:16:50;11.10;;;2.37;;
4527;SDS011;62320;51.520;6.818;2023-04-25T07:26:51;11.45;;;2.22;;
4527;SDS011;62320;51.520;6.818;2023-04-25T07:36:53;10.55;;;2.63;;
4527;SDS011;62320;51.520;6.818;2023-04-25T07:46:54;9.67;;;2.43;;
4527;SDS011;62320;51.520;6.818;2023-04-25T07:56:56;10.60;;;2.03;;
4527;SDS011;62320;51.520;6.818;2023-04-25T08:06:57;11.45;;;2.17;;
4527;SDS011;62320;51.520;6.818;2023-04-25T08:16:59;12.17;;;1.93;;
4527;SDS011;62320;51.520;6.818;2023-04-25T08:27:00;11.27;;;1.70;;
4527;SDS011;62320;51.520;6.818;2023-04-25T08:37:02;10.77;;;1.75;;
4527;SDS011;62320;51.520;6.818;2023-04-25T08:47:05;6.63;;;1.20;;
4527;SDS011;62320;51.520;6.818;2023-04-25T08:57:07;7.47;;;2.00;;
4527;SDS011;62320;51.520;6.818;2023-04-25T09:07:09;12.27;;;1.70;;
4527;SDS011;62320;51.520;6.818;2023-04-25T09:17:10;5.95;;;1.20;;
4527;SDS011;62320;51.520;6.818;2023-04-25T09:27:13;6.70;;;1.30;;
4527;SDS011;62320;51.520;6.818;2023-04-25T09:37:23;7.00;;;1.60;;
4527;SDS011;62320;51.520;6.818;2023-04-25T09:47:26;5.80;;;1.25;;
4527;SDS011;62320;51.520;6.818;2023-04-25T09:57:29;7.30;;;1.30;;
4527;SDS011;62320;51.520;6.818;2023-04-25T10:07:31;7.37;;;1.30;;
4527;SDS011;62320;51.520;6.818;2023-04-25T10:17:35;5.28;;;1.27;;
4527;SDS011;62320;51.520;6.818;2023-04-25T10:27:36;7.20;;;1.50;;
4527;SDS011;62320;51.520;6.818;2023-04-25T10:37:38;6.97;;;1.30;;
4527;SDS011;62320;51.520;6.818;2023-04-25T10:47:43;3.80;;;0.90;;
4527;SDS011;62320;51.520;6.818;2023-04-25T10:57:46;5.20;;;1.00;;
4527;SDS011;62320;51.520;6.818;2023-04-25T11:07:50;4.33;;;0.70;;
4527;SDS011;62320;51.520;6.818;2023-04-25T11:18:07;5.53;;;1.73;;
4527;SDS011;62320;51.520;6.818;2023-04-25T11:28:11;6.53;;;1.73;;
4527;SDS011;62320;51.520;6.818;2023-04-25T11:38:13;5.67;;;1.50;;
4527;SDS011;62320;51.520;6.818;2023-04-25T11:48:14;4.57;;;1.20;;
4527;SDS011;62320;51.520;6.818;2023-04-25T11:58:16;9.57;;;1.40;;
4527;SDS011;62320;51.520;6.818;2023-04-25T12:08:17;5.73;;;1.37;;
4527;SDS011;62320;51.520;6.818;2023-04-25T12:18:25;6.30;;;1.30;;
4527;SDS011;62320;51.520;6.818;2023-04-25T12:28:31;4.03;;;1.10;;
4527;SDS011;62320;51.520;6.818;2023-04-25T12:38:41;4.50;;;1.25;;
4527;SDS011;62320;51.520;6.818;2023-04-25T12:48:43;5.83;;;0.93;;
4527;SDS011;62320;51.520;6.818;2023-04-25T12:58:45;6.53;;;1.10;;
4527;SDS011;62320;51.520;6.818;2023-04-25T13:08:47;6.47;;;1.00;;
4527;SDS011;62320;51.520;6.818;2023-04-25T13:18:49;4.50;;;1.13;;
4527;SDS011;62320;51.520;6.818;2023-04-25T13:28:51;7.37;;;1.80;;
4527;SDS011;62320;51.520;6.818;2023-04-25T13:38:52;3.25;;;0.73;;
4527;SDS011;62320;51.520;6.818;2023-04-25T13:48:54;5.03;;;0.70;;
4527;SDS011;62320;51.520;6.818;2023-04-25T13:59:03;4.67;;;0.87;;
4527;SDS011;62320;51.520;6.818;2023-04-25T14:09:04;6.32;;;1.30;;
4527;SDS011;62320;51.520;6.818;2023-04-25T14:19:07;3.97;;;0.98;;
4527;SDS011;62320;51.520;6.818;2023-04-25T14:29:09;5.17;;;1.53;;
4527;SDS011;62320;51.520;6.818;2023-04-25T14:39:13;6.00;;;1.13;;
4527;SDS011;62320;51.520;6.818;2023-04-25T14:49:15;7.65;;;1.08;;
4527;SDS011;62320;51.520;6.818;2023-04-25T14:59:17;4.00;;;1.00;;
4527;SDS011;62320;51.520;6.818;2023-04-25T15:09:18;4.73;;;1.00;;
4527;SDS011;62320;51.520;6.818;2023-04-25T15:19:20;5.20;;;1.02;;
4527;SDS011;62320;51.520;6.818;2023-04-25T15:29:22;3.43;;;0.87;;
4527;SDS011;62320;51.520;6.818;2023-04-25T15:39:23;5.57;;;0.90;;
4527;SDS011;62320;51.520;6.818;2023-04-25T15:49:25;4.90;;;1.23;;
4527;SDS011;62320;51.520;6.818;2023-04-25T15:59:26;3.70;;;0.90;;
4527;SDS011;62320;51.520;6.818;2023-04-25T16:09:28;4.93;;;0.90;;
4527;SDS011;62320;51.520;6.818;2023-04-25T16:19:29;3.53;;;0.77;;
4527;SDS011;62320;51.520;6.818;2023-04-25T16:29:31;4.50;;;1.15;;
4527;SDS011;62320;51.520;6.818;2023-04-25T16:39:32;4.57;;;0.70;;
4527;SDS011;62320;51.520;6.818;2023-04-25T16:49:34;6.60;;;0.93;;
4527;SDS011;62320;51.520;6.818;2023-04-25T16:59:36;5.20;;;1.17;;
4527;SDS011;62320;51.520;6.818;2023-04-25T17:09:38;5.23;;;1.10;;
4527;SDS011;62320;51.520;6.818;2023-04-25T17:19:40;4.67;;;0.87;;
4527;SDS011;62320;51.520;6.818;2023-04-25T17:29:41;3.90;;;0.85;;
4527;SDS011;62320;51.520;6.818;2023-04-25T17:39:43;3.88;;;0.93;;
4527;SDS011;62320;51.520;6.818;2023-04-25T17:49:45;6.00;;;1.03;;
4527;SDS011;62320;51.520;6.818;2023-04-25T17:59:47;4.67;;;1.07;;
4527;SDS011;62320;51.520;6.818;2023-04-25T18:09:48;5.38;;;1.45;;
4527;SDS011;62320;51.520;6.818;2023-04-25T18:19:50;10.97;;;1.20;;
4527;SDS011;62320;51.520;6.818;2023-04-25T18:29:51;6.63;;;1.20;;
4527;SDS011;62320;51.520;6.818;2023-04-25T18:39:53;7.75;;;1.67;;
4527;SDS011;62320;51.520;6.818;2023-04-25T18:49:54;5.73;;;1.10;;
4527;SDS011;62320;51.520;6.818;2023-04-25T18:59:56;4.57;;;1.20;;
4527;SDS011;62320;51.520;6.818;2023-04-25T19:09:58;5.55;;;1.25;;
4527;SDS011;62320;51.520;6.818;2023-04-25T19:20:00;5.57;;;1.30;;
4527;SDS011;62320;51.520;6.818;2023-04-25T19:30:01;4.77;;;1.07;;
4527;SDS011;62320;51.520;6.818;2023-04-25T19:40:08;5.47;;;1.20;;
4527;SDS011;62320;51.520;6.818;2023-04-25T19:50:10;8.60;;;1.52;;
4527;SDS011;62320;51.520;6.818;2023-04-25T20:00:13;6.73;;;1.40;;
4527;SDS011;62320;51.520;6.818;2023-04-25T20:10:18;7.27;;;1.53;;
4527;SDS011;62320;51.520;6.818;2023-04-25T20:20:20;5.60;;;1.40;;
4527;SDS011;62320;51.520;6.818;2023-04-25T20:30:22;6.90;;;1.70;;
4527;SDS011;62320;51.520;6.818;2023-04-25T20:40:23;6.70;;;2.23;;
4527;SDS011;62320;51.520;6.818;2023-04-25T20:50:25;6.97;;;1.70;;
4527;SDS011;62320;51.520;6.818;2023-04-25T21:00:27;7.05;;;1.88;;
4527;SDS011;62320;51.520;6.818;2023-04-25T21:10:29;8.13;;;2.57;;
4527;SDS011;62320;51.520;6.818;2023-04-25T21:20:31;6.37;;;2.03;;
4527;SDS011;62320;51.520;6.818;2023-04-25T21:30:33;10.30;;;2.40;;
4527;SDS011;62320;51.520;6.818;2023-04-25T21:40:35;6.97;;;2.37;;
4527;SDS011;62320;51.520;6.818;2023-04-25T21:50:37;8.10;;;2.20;;
4527;SDS011;62320;51.520;6.818;2023-04-25T22:00:38;7.32;;;2.25;;
4527;SDS011;62320;51.520;6.818;2023-04-25T22:10:40;8.00;;;2.30;;
4527;SDS011;62320;51.520;6.818;2023-04-25T22:20:42;8.00;;;3.10;;
4527;SDS011;62320;51.520;6.818;2023-04-25T22:30:45;9.30;;;3.20;;
4527;SDS011;62320;51.520;6.818;2023-04-25T22:40:47;8.52;;;3.00;;
4527;SDS011;62320;51.520;6.818;2023-04-25T22:50:48;9.47;;;3.60;;
4527;SDS011;62320;51.520;6.818;2023-04-25T23:00:51;11.10;;;3.03;;
4527;SDS011;62320;51.520;6.818;2023-04-25T23:10:53;10.00;;;3.05;;
4527;SDS011;62320;51.520;6.818;2023-04-25T23:20:55;7.93;;;3.10;;
4527;SDS011;62320;51.520;6.818;2023-04-25T23:31:03;9.70;;;3.07;;
4527;SDS011;62320;51.520;6.818;2023-04-25T23:41:05;9.75;;;3.03;;
4527;SDS011;62320;51.520;6.818;2023-04-25T23:51:07;10.90;;;3.03;;
